createdAt,value
2019-06-20T00:09:58.888Z,29.1
2019-06-20T00:25:18.338Z,28.2
2019-06-20T00:40:29.224Z,28
2019-06-20T00:55:57.491Z,30.6
2019-06-20T01:11:16.617Z,30.7
2019-06-20T01:26:35.998Z,30.8
2019-06-20T01:41:37.862Z,30.9
2019-06-20T01:57:10.505Z,31.4
2019-06-20T02:12:33.347Z,33.1
2019-06-20T02:27:52.310Z,34.9
2019-06-20T02:43:11.215Z,36
2019-06-20T02:58:18.003Z,38.8
2019-06-20T03:13:48.743Z,38.4
2019-06-20T03:29:07.556Z,39.4
2019-06-20T03:44:26.276Z,39.4
2019-06-20T03:59:45.109Z,38.8
2019-06-20T04:14:57.267Z,40.8
2019-06-20T04:30:22.931Z,39.9
2019-06-20T04:45:41.621Z,38.9
2019-06-20T05:01:00.550Z,34.2
2019-06-20T05:16:08.395Z,31.9
2019-06-20T05:31:39.067Z,30.6
2019-06-20T05:47:14.009Z,35.1
2019-06-20T06:02:17.619Z,37.5
2019-06-20T06:17:21.680Z,39.7
2019-06-20T06:32:54.092Z,40.3
2019-06-20T06:48:14.533Z,40
2019-06-20T07:03:33.262Z,40
2019-06-20T07:18:52.465Z,37.4
2019-06-20T07:34:03.534Z,42.6
2019-06-20T07:49:30.227Z,43.2
2019-06-20T08:04:49.199Z,42.8
2019-06-20T08:20:08.310Z,40.9
2019-06-20T08:35:14.147Z,40.7
2019-06-20T08:50:46.664Z,38.1
2019-06-20T09:06:06.045Z,36.8
2019-06-20T09:21:25.377Z,38.4
2019-06-20T09:36:44.870Z,38.1
2019-06-20T09:51:59.533Z,36.2
2019-06-20T10:07:24.823Z,31.2
2019-06-20T10:22:47.295Z,28.5
2019-06-20T10:38:06.891Z,23.4
2019-06-20T10:53:14.711Z,22.6
2019-06-20T11:08:49.713Z,20.7
2019-06-20T11:24:12.815Z,19.3
2019-06-20T11:39:37.468Z,17.2
2019-06-20T11:54:58.130Z,17.6
2019-06-20T12:10:09.604Z,19.6
2019-06-20T12:25:42.820Z,22.1
2019-06-20T12:41:02.375Z,22.6
2019-06-20T12:56:23.090Z,24.9
2019-06-20T13:11:25.797Z,26.1
2019-06-20T13:26:59.765Z,24.1
2019-06-20T13:42:25.031Z,23.4
2019-06-20T13:57:47.708Z,29.8
2019-06-20T14:13:19.739Z,24.7
2019-06-20T14:28:28.629Z,24.7
2019-06-20T14:43:49.869Z,22.8
2019-06-20T14:59:13.248Z,20.8
2019-06-20T15:14:37.004Z,16.4
2019-06-20T15:30:01.468Z,15.3
2019-06-20T15:45:09.129Z,14.9
2019-06-20T16:00:44.869Z,15.6
2019-06-20T16:16:16.543Z,15.1
2019-06-20T16:31:41.808Z,15
2019-06-20T16:47:07.195Z,14.4
2019-06-20T17:02:32.259Z,14.7
2019-06-20T17:17:41.179Z,14.7
2019-06-20T17:33:16.620Z,15.3
2019-06-20T17:48:44.067Z,17.5
2019-06-20T18:04:14.356Z,18.8
2019-06-20T18:19:28.485Z,20.8
2019-06-20T18:34:33.262Z,24.8
2019-06-20T18:50:07.373Z,26.1
2019-06-20T19:05:31.452Z,27.1
2019-06-20T19:20:51.898Z,28.7
2019-06-20T19:36:12.266Z,29.4
2019-06-20T19:51:20.046Z,30.3
2019-06-20T20:06:52.686Z,30.8
2019-06-20T20:22:12.681Z,31.4
2019-06-20T20:37:32.421Z,43
2019-06-20T20:52:51.358Z,61.5
2019-06-20T21:08:02.869Z,71.1
2019-06-20T21:23:28.048Z,72.9
2019-06-20T21:38:46.238Z,76.3
2019-06-20T21:54:04.368Z,78
2019-06-20T22:09:08.757Z,78.2
2019-06-20T22:24:40.471Z,77.6
2019-06-20T22:39:58.955Z,79.2
2019-06-20T22:55:16.119Z,79.5
2019-06-20T23:10:33.991Z,78.6
2019-06-20T23:25:45.593Z,79
2019-06-20T23:41:09.684Z,78.4
2019-06-20T23:56:27.609Z,78.4
